Time;durP1;ratioP1;P1;durP2;ratioP2;P2;SDS_P1;SDS_P2;PMS_P1;PMS_P2;Temp;Humidity;BMP_temperature;BMP_pressure;BME280_temperature;BME280_humidity;BME280_pressure;Samples;Min_cycle;Max_cycle;Signal;HPM_P1;HPM_P2
2021/05/30 00:01:51;;;;;;;;;22.33;21.00;;;;;;;;5005845;28;9136;-83
2021/05/30 00:04:21;;;;;;;;;22.67;21.67;;;;;;;;5002388;28;9111;-82
2021/05/30 00:06:48;;;;;;;;;24.67;23.33;;;;;;;;4985569;28;9993;-82
2021/05/30 00:09:15;;;;;;;;;27.33;25.00;;;;;;;;5006371;28;9442;-83
2021/05/30 00:11:42;;;;;;;;;22.67;19.67;;;;;;;;4998868;28;9286;-81
2021/05/30 00:14:09;;;;;;;;;24.67;23.00;;;;;;;;4999207;28;9317;-82
2021/05/30 00:16:36;;;;;;;;;26.00;23.25;;;;;;;;5002664;28;9416;-82
2021/05/30 00:19:04;;;;;;;;;24.75;21.75;;;;;;;;5004340;28;9410;-82
2021/05/30 00:21:32;;;;;;;;;23.00;22.00;;;;;;;;5002921;28;9413;-81
2021/05/30 00:23:59;;;;;;;;;28.67;24.67;;;;;;;;5002574;28;9375;-83
2021/05/30 00:26:26;;;;;;;;;23.33;22.33;;;;;;;;5004277;28;9508;-82
2021/05/30 00:28:53;;;;;;;;;22.00;21.00;;;;;;;;4989938;28;9429;-79
2021/05/30 00:31:20;;;;;;;;;25.25;25.25;;;;;;;;5006201;28;9332;-82
2021/05/30 00:33:48;;;;;;;;;27.50;26.75;;;;;;;;5003199;28;9505;-82
2021/05/30 00:36:15;;;;;;;;;22.33;22.33;;;;;;;;5004383;28;9439;-85
2021/05/30 00:38:42;;;;;;;;;21.75;21.75;;;;;;;;5004760;28;9339;-82
2021/05/30 00:41:09;;;;;;;;;24.00;22.75;;;;;;;;4985608;28;9498;-82
2021/05/30 00:43:46;;;;;;;;;27.75;26.75;;;;;;;;5004394;28;9485;-85
2021/05/30 00:46:13;;;;;;;;;27.00;24.50;;;;;;;;5002624;28;9695;-84
2021/05/30 00:48:40;;;;;;;;;27.50;22.00;;;;;;;;5004173;28;9535;-85
2021/05/30 00:51:07;;;;;;;;;26.50;21.75;;;;;;;;5003522;28;9634;-86
2021/05/30 00:53:35;;;;;;;;;26.75;23.00;;;;;;;;5006712;28;9502;-83
2021/05/30 00:56:06;;;;;;;;;21.00;21.00;;;;;;;;5007099;28;9683;-82
2021/05/30 00:58:33;;;;;;;;;25.00;23.50;;;;;;;;5006067;28;9567;-83
2021/05/30 01:01:00;;;;;;;;;29.50;28.00;;;;;;;;5011687;28;9472;-84
2021/05/30 01:03:27;;;;;;;;;23.25;23.25;;;;;;;;4993223;28;9617;-83
2021/05/30 01:05:54;;;;;;;;;27.50;22.00;;;;;;;;5007418;28;9704;-84
2021/05/30 01:08:26;;;;;;;;;26.25;24.25;;;;;;;;5007288;28;9728;-81
2021/05/30 01:10:54;;;;;;;;;27.25;27.25;;;;;;;;5009715;28;9743;-83
2021/05/30 01:13:22;;;;;;;;;21.25;21.25;;;;;;;;5007513;28;9711;-82
2021/05/30 01:15:50;;;;;;;;;30.00;27.50;;;;;;;;5006245;28;9580;-80
2021/05/30 01:18:17;;;;;;;;;30.50;29.00;;;;;;;;5007430;28;9911;-83
2021/05/30 01:20:44;;;;;;;;;25.50;25.25;;;;;;;;5005678;28;9753;-82
2021/05/30 01:23:13;;;;;;;;;29.00;26.25;;;;;;;;5007182;28;9739;-83
2021/05/30 01:25:40;;;;;;;;;27.50;27.50;;;;;;;;5009735;28;9627;-83
2021/05/30 01:28:08;;;;;;;;;22.50;22.50;;;;;;;;5006465;28;9572;-82
2021/05/30 01:30:36;;;;;;;;;30.00;27.25;;;;;;;;4988468;28;9590;-82
2021/05/30 01:33:04;;;;;;;;;27.00;25.75;;;;;;;;5006490;28;9940;-83
2021/05/30 01:35:32;;;;;;;;;29.25;26.75;;;;;;;;5006924;28;9770;-83
2021/05/30 01:37:59;;;;;;;;;25.00;24.25;;;;;;;;5006366;28;9799;-82
2021/05/30 01:40:27;;;;;;;;;25.50;24.00;;;;;;;;5002065;28;9826;-85
2021/05/30 01:42:55;;;;;;;;;30.50;27.25;;;;;;;;5005602;28;9745;-84
2021/05/30 01:45:24;;;;;;;;;27.25;26.00;;;;;;;;5006006;28;9817;-84
2021/05/30 01:47:51;;;;;;;;;29.00;25.50;;;;;;;;5007089;28;9911;-84
2021/05/30 01:50:20;;;;;;;;;30.50;29.25;;;;;;;;5006975;28;9741;-83
2021/05/30 01:52:48;;;;;;;;;28.00;27.00;;;;;;;;5006713;28;9803;-84
2021/05/30 01:55:22;;;;;;;;;33.25;30.50;;;;;;;;5005242;28;9750;-84
2021/05/30 01:57:51;;;;;;;;;28.50;27.50;;;;;;;;4988168;28;9988;-84
2021/05/30 02:00:19;;;;;;;;;31.50;28.50;;;;;;;;5010702;28;9756;-85
2021/05/30 02:02:49;;;;;;;;;23.25;19.50;;;;;;;;4996839;28;9745;-84
2021/05/30 02:05:16;;;;;;;;;22.00;22.00;;;;;;;;4998602;28;9796;-82
2021/05/30 02:07:43;;;;;;;;;28.50;25.75;;;;;;;;5005165;28;9772;-85
2021/05/30 02:10:12;;;;;;;;;26.25;26.25;;;;;;;;5007652;28;9733;-83
2021/05/30 02:12:39;;;;;;;;;41.00;33.25;;;;;;;;5005016;28;9641;-82
2021/05/30 02:15:09;;;;;;;;;26.50;25.75;;;;;;;;5006146;28;9825;-83
2021/05/30 02:17:37;;;;;;;;;30.00;27.25;;;;;;;;5005782;28;9833;-83
2021/05/30 02:20:06;;;;;;;;;39.25;32.50;;;;;;;;5006067;28;9822;-83
2021/05/30 02:22:33;;;;;;;;;35.00;31.50;;;;;;;;5005835;28;9979;-83
2021/05/30 02:25:00;;;;;;;;;32.25;30.50;;;;;;;;5004592;28;9723;-83
2021/05/30 02:27:28;;;;;;;;;28.50;28.50;;;;;;;;5010891;28;9883;-84
2021/05/30 02:29:55;;;;;;;;;25.25;23.75;;;;;;;;5011305;28;9739;-83
2021/05/30 02:32:23;;;;;;;;;26.50;26.50;;;;;;;;5005744;28;9683;-83
2021/05/30 02:34:49;;;;;;;;;28.00;26.50;;;;;;;;5009141;28;9900;-83
2021/05/30 02:37:18;;;;;;;;;26.00;22.00;;;;;;;;5012916;28;9753;-84
2021/05/30 02:39:45;;;;;;;;;33.50;27.50;;;;;;;;5006467;28;10358;-79
2021/05/30 02:42:13;;;;;;;;;26.75;26.75;;;;;;;;5006554;28;9793;-85
2021/05/30 02:44:41;;;;;;;;;26.50;26.50;;;;;;;;5005561;28;10129;-86
2021/05/30 02:47:08;;;;;;;;;32.00;32.00;;;;;;;;5005927;28;9919;-83
2021/05/30 02:49:36;;;;;;;;;29.00;27.25;;;;;;;;5005265;28;10012;-84
2021/05/30 02:52:04;;;;;;;;;29.25;28.75;;;;;;;;5005254;28;10052;-83
2021/05/30 02:54:32;;;;;;;;;26.25;26.25;;;;;;;;5005063;28;10161;-85
2021/05/30 02:56:59;;;;;;;;;26.50;25.00;;;;;;;;5004777;28;9956;-84
2021/05/30 02:59:25;;;;;;;;;30.50;28.00;;;;;;;;5005748;28;9967;-84
2021/05/30 03:01:52;;;;;;;;;30.00;26.25;;;;;;;;5004898;28;9956;-83
2021/05/30 03:04:19;;;;;;;;;29.75;28.75;;;;;;;;5004773;28;10907;-84
2021/05/30 03:06:46;;;;;;;;;26.25;21.50;;;;;;;;5005220;28;10035;-84
2021/05/30 03:09:13;;;;;;;;;25.50;24.50;;;;;;;;5004210;28;10007;-84
2021/05/30 03:11:40;;;;;;;;;27.50;25.75;;;;;;;;5004690;28;9902;-82
2021/05/30 03:14:07;;;;;;;;;25.75;24.25;;;;;;;;5004548;28;10122;-82
2021/05/30 03:16:34;;;;;;;;;31.00;29.50;;;;;;;;5003254;28;9804;-82
2021/05/30 03:19:01;;;;;;;;;30.00;28.25;;;;;;;;5004304;28;10228;-80
2021/05/30 03:21:28;;;;;;;;;25.00;24.75;;;;;;;;4982622;28;10320;-82
2021/05/30 03:23:56;;;;;;;;;22.50;19.75;;;;;;;;5006540;28;10297;-82
2021/05/30 03:26:23;;;;;;;;;31.75;26.50;;;;;;;;5000391;28;10151;-82
2021/05/30 03:28:50;;;;;;;;;22.75;22.50;;;;;;;;5011395;28;10301;-80
2021/05/30 03:31:17;;;;;;;;;25.75;21.50;;;;;;;;5003117;28;10168;-82
2021/05/30 03:33:44;;;;;;;;;26.25;26.25;;;;;;;;5004243;28;10392;-84
2021/05/30 03:36:14;;;;;;;;;27.00;25.75;;;;;;;;4988634;28;10399;-83
2021/05/30 03:38:42;;;;;;;;;32.00;28.25;;;;;;;;5004821;28;10526;-79
2021/05/30 03:41:13;;;;;;;;;18.75;17.50;;;;;;;;5004182;28;10453;-83
2021/05/30 03:43:41;;;;;;;;;31.00;29.00;;;;;;;;5003580;28;10545;-80
2021/05/30 03:46:08;;;;;;;;;28.00;24.50;;;;;;;;5004429;28;10759;-80
2021/05/30 03:48:35;;;;;;;;;37.75;33.00;;;;;;;;5003664;28;10534;-81
2021/05/30 03:51:02;;;;;;;;;34.00;28.75;;;;;;;;5004157;28;10689;-81
2021/05/30 03:53:29;;;;;;;;;29.75;29.00;;;;;;;;5003389;28;10587;-81
2021/05/30 03:55:56;;;;;;;;;26.25;25.50;;;;;;;;5003703;28;10649;-83
2021/05/30 03:58:24;;;;;;;;;25.00;25.00;;;;;;;;5003220;28;10709;-84
2021/05/30 04:00:51;;;;;;;;;26.50;26.50;;;;;;;;5002514;28;10462;-83
2021/05/30 04:03:18;;;;;;;;;24.75;24.75;;;;;;;;5005324;28;10651;-81
2021/05/30 04:05:45;;;;;;;;;33.00;28.00;;;;;;;;5002247;28;10692;-83
2021/05/30 04:08:12;;;;;;;;;25.75;25.75;;;;;;;;4987106;28;10697;-84
2021/05/30 04:10:42;;;;;;;;;36.75;32.75;;;;;;;;4999192;28;10804;-85
2021/05/30 04:13:09;;;;;;;;;33.00;32.25;;;;;;;;5004795;28;11670;-83
2021/05/30 04:15:36;;;;;;;;;34.00;34.00;;;;;;;;5006314;28;10781;-84
2021/05/30 04:18:04;;;;;;;;;31.25;28.75;;;;;;;;5003493;28;10687;-79
2021/05/30 04:20:30;;;;;;;;;40.75;37.75;;;;;;;;5004816;28;10747;-85
2021/05/30 04:22:57;;;;;;;;;33.50;33.50;;;;;;;;5000588;28;10851;-82
2021/05/30 04:25:24;;;;;;;;;35.00;34.75;;;;;;;;5003888;28;11062;-84
2021/05/30 04:27:51;;;;;;;;;41.75;35.75;;;;;;;;5008318;28;11108;-82
2021/05/30 04:30:19;;;;;;;;;45.25;35.25;;;;;;;;5008151;28;11167;-83
2021/05/30 04:32:47;;;;;;;;;34.75;33.75;;;;;;;;5006867;28;10937;-84
2021/05/30 04:35:14;;;;;;;;;31.50;31.50;;;;;;;;5007521;28;10852;-84
2021/05/30 04:37:42;;;;;;;;;28.25;27.75;;;;;;;;5008583;28;10995;-84
2021/05/30 04:40:10;;;;;;;;;34.25;34.25;;;;;;;;5007195;28;10954;-82
2021/05/30 04:42:37;;;;;;;;;36.50;34.00;;;;;;;;5010064;28;10937;-85
2021/05/30 04:45:06;;;;;;;;;35.75;35.25;;;;;;;;5007268;28;10897;-83
2021/05/30 04:47:32;;;;;;;;;36.25;31.25;;;;;;;;5007560;28;10857;-84
2021/05/30 04:50:01;;;;;;;;;42.00;34.00;;;;;;;;5007419;28;11527;-81
2021/05/30 04:52:28;;;;;;;;;41.25;34.50;;;;;;;;5006730;28;10989;-82
2021/05/30 04:54:55;;;;;;;;;34.00;30.00;;;;;;;;5007930;28;10827;-84
2021/05/30 04:57:22;;;;;;;;;31.00;29.00;;;;;;;;5006745;28;10701;-81
2021/05/30 04:59:49;;;;;;;;;33.00;32.75;;;;;;;;4995692;28;10702;-84
2021/05/30 05:02:16;;;;;;;;;37.00;32.25;;;;;;;;5005791;28;10712;-83
2021/05/30 05:04:43;;;;;;;;;32.50;31.25;;;;;;;;5007876;28;10585;-85
2021/05/30 05:07:11;;;;;;;;;32.75;29.00;;;;;;;;5005992;28;10810;-84
2021/05/30 05:09:37;;;;;;;;;33.50;30.50;;;;;;;;5008613;28;10571;-83
2021/05/30 05:12:05;;;;;;;;;30.50;28.50;;;;;;;;5007188;28;10444;-83
2021/05/30 05:14:32;;;;;;;;;33.75;33.00;;;;;;;;5007003;28;10330;-82
2021/05/30 05:16:59;;;;;;;;;27.00;27.00;;;;;;;;5007242;28;10472;-82
2021/05/30 05:19:26;;;;;;;;;41.75;35.50;;;;;;;;5004615;28;10443;-85
2021/05/30 05:21:53;;;;;;;;;35.50;32.50;;;;;;;;4990310;28;10789;-84
2021/05/30 05:24:21;;;;;;;;;36.75;33.75;;;;;;;;5006063;28;10310;-87
2021/05/30 05:26:48;;;;;;;;;39.75;36.25;;;;;;;;5007454;28;10481;-84
2021/05/30 05:29:15;;;;;;;;;34.25;31.75;;;;;;;;5007506;28;10373;-85
2021/05/30 05:31:42;;;;;;;;;34.25;32.25;;;;;;;;5007249;28;11006;-78
2021/05/30 05:34:09;;;;;;;;;31.00;27.75;;;;;;;;5006755;28;10459;-85
2021/05/30 05:36:36;;;;;;;;;31.75;31.75;;;;;;;;5004790;28;10290;-85
2021/05/30 05:39:03;;;;;;;;;30.25;30.25;;;;;;;;5005381;28;10466;-82
2021/05/30 05:41:31;;;;;;;;;29.25;27.00;;;;;;;;5007310;28;10535;-80
2021/05/30 05:43:58;;;;;;;;;30.50;30.50;;;;;;;;5001407;28;10724;-82
2021/05/30 05:46:27;;;;;;;;;30.25;29.50;;;;;;;;4988413;28;10613;-82
2021/05/30 05:48:54;;;;;;;;;36.25;32.75;;;;;;;;4999403;28;10503;-83
2021/05/30 05:51:21;;;;;;;;;32.50;26.75;;;;;;;;5004547;28;10292;-81
2021/05/30 05:53:48;;;;;;;;;37.50;29.50;;;;;;;;4993227;28;10084;-81
2021/05/30 05:56:15;;;;;;;;;30.50;29.00;;;;;;;;5006605;28;9964;-79
2021/05/30 05:58:43;;;;;;;;;27.25;27.00;;;;;;;;5004362;28;10075;-78
2021/05/30 06:01:10;;;;;;;;;33.75;33.75;;;;;;;;5007735;28;9861;-86
2021/05/30 06:03:37;;;;;;;;;35.25;34.25;;;;;;;;4988087;28;9979;-81
2021/05/30 06:06:05;;;;;;;;;30.75;29.25;;;;;;;;5009245;28;10005;-83
2021/05/30 06:08:32;;;;;;;;;29.25;29.25;;;;;;;;4986603;28;10053;-82
2021/05/30 06:10:59;;;;;;;;;26.75;24.75;;;;;;;;5004247;28;10079;-84
2021/05/30 06:13:26;;;;;;;;;39.00;36.00;;;;;;;;5004475;28;9801;-82
2021/05/30 06:15:54;;;;;;;;;33.00;30.75;;;;;;;;5004111;28;10135;-79
2021/05/30 06:18:23;;;;;;;;;26.50;25.00;;;;;;;;5006492;28;10005;-83
2021/05/30 06:20:50;;;;;;;;;27.50;27.50;;;;;;;;5003872;28;9827;-84
2021/05/30 06:23:17;;;;;;;;;34.75;31.00;;;;;;;;5004776;28;9645;-85
2021/05/30 06:25:45;;;;;;;;;33.00;30.50;;;;;;;;5006044;28;10522;-85
2021/05/30 06:28:12;;;;;;;;;29.50;28.50;;;;;;;;4987592;28;9804;-89
2021/05/30 06:30:41;;;;;;;;;29.50;27.25;;;;;;;;5004898;28;9774;-83
2021/05/30 06:33:10;;;;;;;;;31.75;31.75;;;;;;;;5003461;28;9665;-84
2021/05/30 06:35:39;;;;;;;;;27.25;26.75;;;;;;;;5006006;28;9594;-81
2021/05/30 06:38:07;;;;;;;;;24.75;24.75;;;;;;;;5001387;28;10452;-80
2021/05/30 06:40:34;;;;;;;;;32.00;26.25;;;;;;;;4979203;28;9510;-82
2021/05/30 06:43:01;;;;;;;;;25.33;24.33;;;;;;;;5007601;28;9485;-87
2021/05/30 06:45:28;;;;;;;;;22.67;21.33;;;;;;;;5004476;28;9422;-85
2021/05/30 06:47:56;;;;;;;;;23.33;23.33;;;;;;;;5005619;28;9393;-82
2021/05/30 06:50:25;;;;;;;;;31.67;26.67;;;;;;;;5004691;28;9368;-82
2021/05/30 06:52:52;;;;;;;;;28.33;22.33;;;;;;;;5005824;28;10083;-83
2021/05/30 06:55:21;;;;;;;;;28.33;23.33;;;;;;;;5003931;28;9121;-84
2021/05/30 06:57:48;;;;;;;;;22.33;20.67;;;;;;;;5005331;28;9205;-85
2021/05/30 07:00:15;;;;;;;;;25.33;22.00;;;;;;;;5006090;28;9302;-81
2021/05/30 07:02:43;;;;;;;;;23.33;23.33;;;;;;;;5008200;28;9101;-80
2021/05/30 07:05:11;;;;;;;;;21.33;21.33;;;;;;;;5007835;28;9122;-85
2021/05/30 07:07:39;;;;;;;;;27.33;23.00;;;;;;;;5004081;28;9248;-85
2021/05/30 07:10:07;;;;;;;;;22.00;22.00;;;;;;;;4988031;28;9171;-84
2021/05/30 07:12:34;;;;;;;;;24.33;21.67;;;;;;;;4996086;28;9022;-81
2021/05/30 07:15:02;;;;;;;;;18.00;17.33;;;;;;;;5005388;28;8966;-86
2021/05/30 07:17:29;;;;;;;;;19.33;19.33;;;;;;;;4984327;28;8945;-86
2021/05/30 07:19:57;;;;;;;;;20.33;20.33;;;;;;;;5003991;28;8984;-81
2021/05/30 07:22:25;;;;;;;;;16.50;15.50;;;;;;;;4987523;28;9056;-86
2021/05/30 07:24:53;;;;;;;;;23.50;18.00;;;;;;;;4986865;28;8874;-80
2021/05/30 07:27:20;;;;;;;;;19.50;19.50;;;;;;;;5008696;28;8868;-81
2021/05/30 07:29:47;;;;;;;;;22.67;20.67;;;;;;;;5010389;28;8870;-77
2021/05/30 07:32:14;;;;;;;;;23.50;20.25;;;;;;;;5004840;28;8888;-88
2021/05/30 07:34:41;;;;;;;;;17.00;17.00;;;;;;;;4987820;28;8867;-84
2021/05/30 07:37:07;;;;;;;;;22.75;19.75;;;;;;;;5004001;28;8887;-82
2021/05/30 07:39:34;;;;;;;;;17.50;17.50;;;;;;;;5004494;28;8851;-80
2021/05/30 07:42:02;;;;;;;;;17.50;17.50;;;;;;;;5005958;28;9554;-81
2021/05/30 07:44:29;;;;;;;;;17.25;16.50;;;;;;;;5005040;28;8834;-82
2021/05/30 07:46:57;;;;;;;;;18.25;15.25;;;;;;;;4987073;28;8909;-80
2021/05/30 07:49:24;;;;;;;;;12.75;10.75;;;;;;;;5005214;28;9010;-80
2021/05/30 07:51:51;;;;;;;;;16.75;15.75;;;;;;;;5002781;28;8887;-82
2021/05/30 07:54:18;;;;;;;;;18.00;18.00;;;;;;;;4994511;28;8856;-82
2021/05/30 07:56:46;;;;;;;;;15.25;15.25;;;;;;;;5004654;28;9604;-86
2021/05/30 07:59:14;;;;;;;;;15.75;15.75;;;;;;;;5004742;28;8863;-87
2021/05/30 08:01:41;;;;;;;;;17.50;14.75;;;;;;;;5006329;28;8819;-86
2021/05/30 08:04:08;;;;;;;;;14.50;14.50;;;;;;;;4985741;28;8867;-87
2021/05/30 08:06:35;;;;;;;;;16.50;16.50;;;;;;;;5003940;28;8878;-86
2021/05/30 08:09:03;;;;;;;;;17.00;15.50;;;;;;;;5004820;28;8883;-83
2021/05/30 08:11:30;;;;;;;;;17.50;17.50;;;;;;;;5002547;28;8863;-83
2021/05/30 08:13:57;;;;;;;;;15.50;13.25;;;;;;;;4993622;28;8886;-87
2021/05/30 08:16:25;;;;;;;;;13.25;13.25;;;;;;;;5004348;28;8977;-88
2021/05/30 08:18:52;;;;;;;;;14.00;14.00;;;;;;;;5005188;28;9405;-82
2021/05/30 08:21:19;;;;;;;;;12.50;12.50;;;;;;;;5000603;28;8858;-78
2021/05/30 08:23:46;;;;;;;;;13.50;12.50;;;;;;;;5003394;28;8892;-77
2021/05/30 08:26:13;;;;;;;;;12.50;12.50;;;;;;;;5003198;28;8874;-80
2021/05/30 08:28:40;;;;;;;;;13.25;13.25;;;;;;;;5012283;28;9017;-81
2021/05/30 08:31:07;;;;;;;;;12.00;12.00;;;;;;;;4999518;28;8859;-77
2021/05/30 08:33:36;;;;;;;;;9.25;9.25;;;;;;;;5000827;28;8906;-80
2021/05/30 08:36:03;;;;;;;;;8.25;8.25;;;;;;;;5008105;28;8867;-79
2021/05/30 08:38:29;;;;;;;;;10.25;10.25;;;;;;;;5001070;28;9652;-80
2021/05/30 08:40:57;;;;;;;;;15.00;13.25;;;;;;;;5003170;28;8883;-81
2021/05/30 08:43:24;;;;;;;;;10.75;10.75;;;;;;;;5011237;28;8859;-81
2021/05/30 08:45:52;;;;;;;;;12.00;12.00;;;;;;;;5004443;28;8907;-78
2021/05/30 08:48:19;;;;;;;;;14.50;13.00;;;;;;;;4990067;28;8932;-79
2021/05/30 08:51:02;;;;;;;;;11.00;11.00;;;;;;;;5002230;28;8897;-82
2021/05/30 08:53:29;;;;;;;;;11.80;11.80;;;;;;;;5003769;28;8871;-80
2021/05/30 08:55:56;;;;;;;;;12.00;11.80;;;;;;;;5002151;28;8874;-77
2021/05/30 08:58:23;;;;;;;;;10.20;10.20;;;;;;;;5003875;28;9882;-80
2021/05/30 09:01:08;;;;;;;;;14.60;13.00;;;;;;;;5000134;28;8783;-79
2021/05/30 09:03:50;;;;;;;;;10.60;10.40;;;;;;;;5001628;28;9624;-79
2021/05/30 09:06:19;;;;;;;;;10.20;9.80;;;;;;;;5002943;28;8866;-79
2021/05/30 09:08:49;;;;;;;;;9.00;9.00;;;;;;;;5003198;28;8875;-81
2021/05/30 09:11:16;;;;;;;;;9.60;9.60;;;;;;;;5003428;28;8997;-79
2021/05/30 09:14:00;;;;;;;;;10.00;10.00;;;;;;;;5002703;28;8866;-77
2021/05/30 09:16:47;;;;;;;;;9.00;8.00;;;;;;;;5007056;28;8867;-80
2021/05/30 09:19:33;;;;;;;;;10.60;8.00;;;;;;;;5006669;28;8868;-79
2021/05/30 09:22:20;;;;;;;;;12.00;10.20;;;;;;;;5005983;28;8922;-79
2021/05/30 09:25:05;;;;;;;;;9.00;9.00;;;;;;;;4989155;28;8933;-80
2021/05/30 09:27:33;;;;;;;;;9.80;9.80;;;;;;;;5006995;28;8856;-84
2021/05/30 09:30:29;;;;;;;;;8.80;8.80;;;;;;;;5006868;28;8855;-84
2021/05/30 09:33:03;;;;;;;;;8.80;7.60;;;;;;;;5006570;28;9573;-79
2021/05/30 09:35:43;;;;;;;;;7.60;7.60;;;;;;;;5006240;28;8862;-81
2021/05/30 09:38:14;;;;;;;;;8.40;8.40;;;;;;;;5008228;28;8879;-85
2021/05/30 09:40:42;;;;;;;;;6.00;6.00;;;;;;;;4989522;28;8984;-78
2021/05/30 09:43:11;;;;;;;;;10.80;10.80;;;;;;;;5017903;28;8874;-84
2021/05/30 09:45:39;;;;;;;;;11.00;10.00;;;;;;;;4997343;28;8864;-80
2021/05/30 09:48:20;;;;;;;;;10.00;10.00;;;;;;;;5007016;28;9002;-85
2021/05/30 09:53:34;;;;;;;;;8.60;7.40;;;;;;;;5006559;28;8937;-83
2021/05/30 09:56:01;;;;;;;;;8.00;8.00;;;;;;;;5003463;28;8904;-85
2021/05/30 09:58:28;;;;;;;;;5.60;4.60;;;;;;;;5006989;28;8855;-84
2021/05/30 10:01:04;;;;;;;;;7.80;7.80;;;;;;;;5005557;28;8853;-89
2021/05/30 10:03:31;;;;;;;;;7.60;7.60;;;;;;;;5010113;28;8869;-83
2021/05/30 10:06:00;;;;;;;;;8.60;8.60;;;;;;;;5004977;28;8882;-81
2021/05/30 10:08:29;;;;;;;;;7.00;7.00;;;;;;;;5006841;28;8952;-81
2021/05/30 10:10:56;;;;;;;;;7.00;7.00;;;;;;;;5005202;28;8847;-83
2021/05/30 10:13:23;;;;;;;;;6.80;6.80;;;;;;;;5004840;28;8898;-86
2021/05/30 10:15:50;;;;;;;;;6.80;6.80;;;;;;;;4988784;28;8851;-83
2021/05/30 10:18:21;;;;;;;;;8.40;8.40;;;;;;;;5005511;28;8909;-83
2021/05/30 10:20:50;;;;;;;;;5.80;5.80;;;;;;;;4988477;28;8882;-86
2021/05/30 10:23:18;;;;;;;;;5.60;5.60;;;;;;;;5009875;28;8870;-83
2021/05/30 10:25:47;;;;;;;;;4.80;4.80;;;;;;;;5005452;28;8887;-82
2021/05/30 10:28:15;;;;;;;;;5.80;5.80;;;;;;;;5004085;28;8995;-83
2021/05/30 10:30:44;;;;;;;;;7.00;7.00;;;;;;;;5003871;28;8799;-82
2021/05/30 10:33:19;;;;;;;;;4.80;4.80;;;;;;;;5006234;28;8953;-85
2021/05/30 10:35:48;;;;;;;;;11.20;9.40;;;;;;;;5004304;28;8913;-86
2021/05/30 10:38:36;;;;;;;;;5.20;5.20;;;;;;;;4996918;28;8949;-84
2021/05/30 10:41:15;;;;;;;;;22.20;22.20;;;;;;;;4994269;28;8867;-82
2021/05/30 10:43:43;;;;;;;;;17.20;17.20;;;;;;;;5000155;28;8874;-83
2021/05/30 10:46:10;;;;;;;;;8.20;8.20;;;;;;;;4994067;28;8855;-80
2021/05/30 10:48:39;;;;;;;;;8.40;8.40;;;;;;;;5006047;28;8883;-83
2021/05/30 10:51:24;;;;;;;;;7.00;7.00;;;;;;;;5005313;28;9876;-83
2021/05/30 10:53:52;;;;;;;;;10.40;10.40;;;;;;;;5004687;28;8917;-83
2021/05/30 10:56:33;;;;;;;;;16.00;13.60;;;;;;;;5005583;28;9017;-82
2021/05/30 10:59:37;;;;;;;;;31.20;28.40;;;;;;;;5006156;28;8861;-87
2021/05/30 11:02:05;;;;;;;;;7.00;7.00;;;;;;;;4943955;28;9408;-79
2021/05/30 11:04:39;;;;;;;;;7.00;7.00;;;;;;;;4945530;28;8938;-82
2021/05/30 11:07:08;;;;;;;;;8.60;8.60;;;;;;;;4958111;28;8889;-82
2021/05/30 11:10:01;;;;;;;;;11.40;11.40;;;;;;;;5005736;28;8894;-81
2021/05/30 11:12:31;;;;;;;;;21.00;19.80;;;;;;;;4992966;28;8870;-86
2021/05/30 11:15:37;;;;;;;;;12.20;12.20;;;;;;;;5004884;28;8871;-79
2021/05/30 11:18:05;;;;;;;;;10.60;10.60;;;;;;;;5010809;28;8878;-78
2021/05/30 11:20:47;;;;;;;;;9.00;8.40;;;;;;;;5003897;28;8874;-77
2021/05/30 11:23:18;;;;;;;;;4.80;4.80;;;;;;;;5004660;28;8867;-86
2021/05/30 11:25:48;;;;;;;;;3.20;3.20;;;;;;;;5005255;28;8859;-89
2021/05/30 11:28:18;;;;;;;;;2.80;2.80;;;;;;;;4998226;28;8898;-85
2021/05/30 11:30:51;;;;;;;;;4.60;4.60;;;;;;;;5003227;28;8803;-84
2021/05/30 11:33:42;;;;;;;;;3.80;3.80;;;;;;;;5003056;28;8877;-82
2021/05/30 11:36:12;;;;;;;;;4.40;4.40;;;;;;;;4997954;28;8855;-85
2021/05/30 11:38:45;;;;;;;;;17.00;17.00;;;;;;;;5005120;28;8854;-87
2021/05/30 11:41:16;;;;;;;;;14.40;12.60;;;;;;;;5003928;28;8863;-77
2021/05/30 11:44:04;;;;;;;;;8.00;4.80;;;;;;;;5008378;28;8908;-87
2021/05/30 11:46:34;;;;;;;;;9.00;9.00;;;;;;;;5001237;28;8995;-84
2021/05/30 11:49:03;;;;;;;;;10.80;10.80;;;;;;;;5005208;28;8863;-81
2021/05/30 11:52:06;;;;;;;;;6.80;6.80;;;;;;;;5004148;28;9673;-86
2021/05/30 11:54:34;;;;;;;;;6.00;6.00;;;;;;;;5003606;28;8977;-84
2021/05/30 11:57:03;;;;;;;;;71.00;57.75;;;;;;;;5004417;28;8879;-84
2021/05/30 11:59:41;;;;;;;;;62.00;50.00;;;;;;;;5003296;28;9020;-86
2021/05/30 12:02:08;;;;;;;;;42.80;37.20;;;;;;;;5004842;28;8847;-86
2021/05/30 12:04:38;;;;;;;;;48.80;40.20;;;;;;;;5004341;28;8864;-84
2021/05/30 12:07:08;;;;;;;;;29.00;25.60;;;;;;;;5004488;28;8885;-79
2021/05/30 12:09:50;;;;;;;;;8.00;8.00;;;;;;;;5005699;28;8901;-86
2021/05/30 12:12:35;;;;;;;;;10.40;8.80;;;;;;;;5004445;28;8875;-85
2021/05/30 12:15:08;;;;;;;;;14.00;14.00;;;;;;;;5004987;28;9017;-80
2021/05/30 12:17:34;;;;;;;;;19.60;19.60;;;;;;;;5004322;28;9629;-88
2021/05/30 12:20:02;;;;;;;;;13.80;13.80;;;;;;;;5004562;28;8961;-84
2021/05/30 12:22:32;;;;;;;;;7.60;7.20;;;;;;;;5005152;28;8901;-83
2021/05/30 12:24:59;;;;;;;;;7.40;7.40;;;;;;;;5003556;28;8862;-83
2021/05/30 12:27:27;;;;;;;;;5.00;5.00;;;;;;;;5008429;28;8895;-84
2021/05/30 12:29:57;;;;;;;;;4.80;4.80;;;;;;;;5003670;28;8854;-83
2021/05/30 12:32:25;;;;;;;;;9.80;9.80;;;;;;;;5004567;28;9399;-86
2021/05/30 12:34:52;;;;;;;;;7.00;5.60;;;;;;;;5003693;28;8890;-81
2021/05/30 12:37:37;;;;;;;;;17.20;16.00;;;;;;;;5004363;28;8874;-86
2021/05/30 12:40:05;;;;;;;;;2.40;2.40;;;;;;;;5005696;28;8846;-82
2021/05/30 12:42:31;;;;;;;;;19.80;16.40;;;;;;;;5009835;28;8862;-85
2021/05/30 12:45:06;;;;;;;;;4.60;4.60;;;;;;;;5004887;28;8996;-85
2021/05/30 12:47:42;;;;;;;;;21.00;21.00;;;;;;;;5003863;28;8948;-87
2021/05/30 12:50:10;;;;;;;;;5.40;5.40;;;;;;;;5006548;28;8890;-80
2021/05/30 12:52:45;;;;;;;;;5.80;3.00;;;;;;;;5004222;28;8851;-83
2021/05/30 12:55:13;;;;;;;;;3.20;3.20;;;;;;;;5005289;28;8889;-79
2021/05/30 12:57:43;;;;;;;;;4.00;4.00;;;;;;;;5009017;28;8883;-83
2021/05/30 13:00:11;;;;;;;;;3.00;2.00;;;;;;;;5015139;28;8879;-83
2021/05/30 13:02:40;;;;;;;;;5.60;4.60;;;;;;;;5011127;28;8836;-85
2021/05/30 13:05:08;;;;;;;;;3.60;3.60;;;;;;;;5007092;28;8862;-81
2021/05/30 13:07:36;;;;;;;;;2.40;2.40;;;;;;;;5003687;28;8895;-86
2021/05/30 13:10:06;;;;;;;;;3.00;3.00;;;;;;;;5006735;28;8875;-87
2021/05/30 13:12:39;;;;;;;;;2.00;2.00;;;;;;;;5006513;28;8899;-79
2021/05/30 13:15:17;;;;;;;;;3.20;3.20;;;;;;;;5005137;28;8940;-81
2021/05/30 13:17:48;;;;;;;;;3.40;3.40;;;;;;;;5002538;28;8895;-76
2021/05/30 13:20:17;;;;;;;;;4.00;4.00;;;;;;;;5008928;28;8862;-82
2021/05/30 13:22:53;;;;;;;;;3.00;3.00;;;;;;;;4989505;28;8984;-82
2021/05/30 13:25:32;;;;;;;;;1.00;1.00;;;;;;;;5006952;28;8878;-75
2021/05/30 13:28:30;;;;;;;;;3.00;3.00;;;;;;;;5009444;28;9001;-86
2021/05/30 13:31:01;;;;;;;;;0.80;0.80;;;;;;;;4935781;28;8825;-84
2021/05/30 13:33:32;;;;;;;;;4.00;4.00;;;;;;;;4994841;28;8894;-80
2021/05/30 13:36:00;;;;;;;;;2.20;2.20;;;;;;;;5006953;28;8865;-83
2021/05/30 13:38:27;;;;;;;;;3.00;3.00;;;;;;;;5006657;28;8891;-80
2021/05/30 13:40:55;;;;;;;;;2.20;2.20;;;;;;;;5006643;28;9617;-83
2021/05/30 13:43:22;;;;;;;;;4.00;4.00;;;;;;;;5006370;28;8881;-87
2021/05/30 13:45:49;;;;;;;;;3.80;3.00;;;;;;;;5004819;28;8878;-83
2021/05/30 13:48:17;;;;;;;;;2.00;2.00;;;;;;;;5004245;28;8882;-80
2021/05/30 13:51:00;;;;;;;;;3.60;3.60;;;;;;;;5005207;28;8875;-82
2021/05/30 13:53:27;;;;;;;;;3.40;3.40;;;;;;;;5005492;28;8881;-85
2021/05/30 13:55:54;;;;;;;;;3.40;3.40;;;;;;;;5005103;28;8886;-89
2021/05/30 13:58:21;;;;;;;;;2.60;2.60;;;;;;;;5007029;28;8883;-85
2021/05/30 14:00:48;;;;;;;;;4.60;3.00;;;;;;;;5009519;28;8803;-85
2021/05/30 14:03:15;;;;;;;;;6.00;4.20;;;;;;;;5004292;28;8855;-77
2021/05/30 14:05:43;;;;;;;;;3.80;2.60;;;;;;;;5004380;28;8882;-82
2021/05/30 14:08:11;;;;;;;;;5.00;3.00;;;;;;;;5006840;28;9006;-75
2021/05/30 14:10:38;;;;;;;;;6.00;3.00;;;;;;;;5006134;28;8940;-79
2021/05/30 14:13:04;;;;;;;;;2.40;2.40;;;;;;;;5005844;28;8886;-77
2021/05/30 14:15:32;;;;;;;;;3.40;3.00;;;;;;;;5005019;28;8872;-78
2021/05/30 14:17:58;;;;;;;;;4.40;3.00;;;;;;;;5006007;28;9482;-82
2021/05/30 14:20:26;;;;;;;;;2.00;2.00;;;;;;;;5005695;28;8892;-82
2021/05/30 14:22:53;;;;;;;;;3.60;3.60;;;;;;;;5006004;28;8871;-79
2021/05/30 14:25:21;;;;;;;;;2.40;2.40;;;;;;;;5005682;28;8892;-79
2021/05/30 14:27:48;;;;;;;;;5.00;3.80;;;;;;;;4976305;28;8894;-80
2021/05/30 14:30:16;;;;;;;;;4.20;4.20;;;;;;;;4989677;28;8883;-81
2021/05/30 14:32:43;;;;;;;;;4.80;4.80;;;;;;;;5005999;28;8887;-80
2021/05/30 14:35:11;;;;;;;;;3.60;3.60;;;;;;;;5005104;28;8898;-81
2021/05/30 14:37:38;;;;;;;;;3.00;3.00;;;;;;;;5005865;28;8895;-82
2021/05/30 14:40:07;;;;;;;;;3.00;3.00;;;;;;;;5005582;28;8867;-83
2021/05/30 14:42:35;;;;;;;;;2.00;2.00;;;;;;;;5007847;28;8878;-77
2021/05/30 14:45:02;;;;;;;;;2.00;2.00;;;;;;;;5004263;28;9648;-78
2021/05/30 14:47:29;;;;;;;;;3.00;3.00;;;;;;;;5005490;28;8866;-80
2021/05/30 14:49:56;;;;;;;;;3.00;3.00;;;;;;;;5004853;28;8859;-80
2021/05/30 14:52:23;;;;;;;;;4.00;4.00;;;;;;;;5004639;28;8882;-78